createdAt,value
2022-08-19T00:02:05.465Z,2.00
2022-08-19T00:04:37.708Z,1.58
2022-08-19T00:07:07.641Z,1.67
2022-08-19T00:09:35.985Z,1.70
2022-08-19T00:12:04.918Z,3.17
2022-08-19T00:14:33.257Z,2.83
2022-08-19T00:17:02.003Z,2.55
2022-08-19T00:19:30.897Z,3.80
2022-08-19T00:21:59.046Z,2.92
2022-08-19T00:24:28.228Z,2.60
2022-08-19T00:26:57.547Z,2.40
2022-08-19T00:29:45.673Z,2.47
2022-08-19T00:32:13.992Z,2.40
2022-08-19T00:34:46.341Z,1.90
2022-08-19T00:37:14.516Z,2.30
2022-08-19T00:39:42.732Z,2.35
2022-08-19T00:42:11.007Z,2.17
2022-08-19T00:44:39.157Z,2.95
2022-08-19T00:47:07.646Z,2.17
2022-08-19T00:49:52.259Z,3.50
2022-08-19T00:52:24.994Z,3.00
2022-08-19T00:54:54.347Z,2.88
2022-08-19T00:57:35.910Z,2.97
2022-08-19T01:00:13.138Z,3.05
2022-08-19T01:02:42.935Z,2.30
2022-08-19T01:05:21.793Z,3.38
2022-08-19T01:07:53.865Z,3.35
2022-08-19T01:10:27.758Z,3.53
2022-08-19T01:12:59.684Z,2.70
2022-08-19T01:15:36.381Z,3.50
2022-08-19T01:18:09.275Z,3.95
2022-08-19T01:20:37.751Z,3.20
2022-08-19T01:23:06.152Z,3.05
2022-08-19T01:25:48.298Z,3.08
2022-08-19T01:28:39.788Z,3.30
2022-08-19T01:31:26.777Z,3.30
2022-08-19T01:33:57.461Z,3.63
2022-08-19T01:36:33.035Z,3.20
2022-08-19T01:39:03.945Z,2.90
2022-08-19T01:41:32.521Z,3.92
2022-08-19T01:44:17.788Z,3.25
2022-08-19T01:46:49.555Z,3.15
2022-08-19T01:49:20.735Z,3.20
2022-08-19T01:51:50.531Z,3.40
2022-08-19T01:54:23.027Z,3.13
2022-08-19T01:57:15.828Z,3.40
2022-08-19T01:59:45.445Z,3.28
2022-08-19T02:02:14.792Z,3.45
2022-08-19T02:04:43.122Z,3.58
2022-08-19T02:07:11.270Z,3.60
2022-08-19T02:09:42.651Z,3.13
2022-08-19T02:12:10.918Z,3.53
2022-08-19T02:14:39.172Z,3.42
2022-08-19T02:17:10.423Z,3.97
2022-08-19T02:19:40.970Z,3.10
2022-08-19T02:22:09.342Z,3.15
2022-08-19T02:24:37.620Z,3.30
2022-08-19T02:27:06.816Z,3.03
2022-08-19T02:29:35.009Z,3.97
2022-08-19T02:32:03.268Z,3.10
2022-08-19T02:34:31.977Z,3.90
2022-08-19T02:37:03.656Z,3.42
2022-08-19T02:39:32.323Z,3.38
2022-08-19T02:42:00.567Z,2.95
2022-08-19T02:44:31.825Z,3.55
2022-08-19T02:47:00.384Z,3.78
2022-08-19T02:49:28.678Z,4.22
2022-08-19T02:51:56.901Z,4.22
2022-08-19T02:54:25.032Z,3.97
2022-08-19T02:56:53.215Z,3.40
2022-08-19T02:59:23.044Z,3.83
2022-08-19T03:01:51.433Z,3.58
2022-08-19T03:04:20.405Z,3.45
2022-08-19T03:06:49.275Z,3.75
2022-08-19T03:09:19.628Z,3.25
2022-08-19T03:11:48.562Z,3.40
2022-08-19T03:14:19.040Z,3.30
2022-08-19T03:16:50.926Z,3.42
2022-08-19T03:19:22.410Z,3.33
2022-08-19T03:21:51.373Z,2.97
2022-08-19T03:24:20.263Z,3.38
2022-08-19T03:26:52.314Z,3.15
2022-08-19T03:29:30.272Z,2.80
2022-08-19T03:32:06.591Z,3.58
2022-08-19T03:34:37.186Z,2.90
2022-08-19T03:37:10.911Z,2.78
2022-08-19T03:39:41.336Z,2.58
2022-08-19T03:42:47.787Z,3.13
2022-08-19T03:44:59.729Z,3.30
2022-08-19T03:47:27.944Z,2.60
2022-08-19T03:49:56.497Z,2.40
2022-08-19T03:52:24.721Z,3.97
2022-08-19T03:54:52.974Z,2.45
2022-08-19T03:57:21.588Z,3.28
2022-08-19T03:59:56.045Z,3.10
2022-08-19T04:02:41.722Z,2.72
2022-08-19T04:05:10.132Z,2.80
2022-08-19T04:07:38.378Z,3.03
2022-08-19T04:10:06.951Z,3.33
2022-08-19T04:12:40.400Z,2.58
2022-08-19T04:15:09.875Z,2.85
2022-08-19T04:17:38.006Z,2.47
2022-08-19T04:20:07.060Z,3.50
2022-08-19T04:22:35.576Z,3.25
2022-08-19T04:25:04.170Z,3.42
2022-08-19T04:27:32.767Z,3.92
2022-08-19T04:30:00.997Z,5.10
2022-08-19T04:32:32.943Z,4.68
2022-08-19T04:35:17.609Z,3.95
2022-08-19T04:37:47.547Z,5.53
2022-08-19T04:40:37.215Z,4.20
2022-08-19T04:43:05.468Z,4.65
2022-08-19T04:45:39.456Z,4.20
2022-08-19T04:48:26.533Z,4.05
2022-08-19T04:51:00.637Z,5.07
2022-08-19T04:53:37.433Z,6.80
2022-08-19T04:56:12.416Z,5.40
2022-08-19T04:58:43.499Z,5.20
2022-08-19T05:01:15.755Z,6.90
2022-08-19T05:03:44.034Z,6.60
2022-08-19T05:06:15.903Z,6.63
2022-08-19T05:08:45.199Z,6.30
2022-08-19T05:11:26.409Z,6.30
2022-08-19T05:13:58.796Z,7.00
2022-08-19T05:16:28.464Z,6.40
2022-08-19T05:19:15.699Z,5.47
2022-08-19T05:22:03.340Z,5.78
2022-08-19T05:24:34.316Z,5.93
2022-08-19T05:27:06.567Z,6.55
2022-08-19T05:29:36.381Z,5.38
2022-08-19T05:32:09.679Z,4.97
2022-08-19T05:34:39.136Z,5.55
2022-08-19T05:37:08.582Z,5.35
2022-08-19T05:39:39.247Z,4.80
2022-08-19T05:42:10.081Z,5.43
2022-08-19T05:44:44.973Z,5.28
2022-08-19T05:47:14.452Z,4.68
2022-08-19T05:49:43.658Z,4.35
2022-08-19T05:52:18.902Z,5.43
2022-08-19T05:54:51.225Z,5.20
2022-08-19T05:57:20.686Z,4.35
2022-08-19T05:59:53.111Z,4.88
2022-08-19T06:02:28.652Z,4.95
2022-08-19T06:04:56.927Z,5.07
2022-08-19T06:07:25.215Z,5.47
2022-08-19T06:10:00.307Z,5.35
2022-08-19T06:12:32.724Z,5.05
2022-08-19T06:15:11.585Z,4.40
2022-08-19T06:17:40.310Z,5.22
2022-08-19T06:20:12.959Z,5.10
2022-08-19T06:22:42.908Z,4.65
2022-08-19T06:25:12.337Z,4.90
2022-08-19T06:27:53.363Z,5.28
2022-08-19T06:30:29.576Z,4.43
2022-08-19T06:32:57.840Z,5.43
2022-08-19T06:35:26.403Z,5.57
2022-08-19T06:37:55.469Z,5.30
2022-08-19T06:40:23.943Z,4.97
2022-08-19T06:42:54.723Z,5.43
2022-08-19T06:45:35.346Z,5.03
2022-08-19T06:48:04.579Z,4.90
2022-08-19T06:50:32.760Z,5.68
2022-08-19T06:53:04.641Z,5.53
2022-08-19T06:55:33.354Z,6.07
2022-08-19T06:58:05.580Z,6.22
2022-08-19T07:00:34.827Z,6.10
2022-08-19T07:03:07.730Z,5.95
2022-08-19T07:05:45.452Z,6.18
2022-08-19T07:08:14.904Z,6.65
2022-08-19T07:10:47.481Z,6.47
2022-08-19T07:13:15.811Z,6.70
2022-08-19T07:15:43.980Z,6.90
2022-08-19T07:18:13.275Z,7.18
2022-08-19T07:20:44.624Z,6.53
2022-08-19T07:23:16.281Z,6.60
2022-08-19T07:25:53.186Z,7.65
2022-08-19T07:28:24.745Z,8.50
2022-08-19T07:30:53.931Z,8.00
2022-08-19T07:33:23.695Z,9.02
2022-08-19T07:35:51.828Z,8.50
2022-08-19T07:38:19.987Z,8.10
2022-08-19T07:40:48.143Z,8.30
2022-08-19T07:43:17.706Z,8.40
2022-08-19T07:45:46.436Z,7.72
2022-08-19T07:48:15.443Z,7.72
2022-08-19T07:50:43.864Z,9.75
2022-08-19T07:53:13.237Z,9.43
2022-08-19T07:55:43.803Z,8.52
2022-08-19T07:58:16.259Z,8.50
2022-08-19T08:00:47.699Z,9.10
2022-08-19T08:03:18.998Z,9.82
2022-08-19T08:06:05.950Z,12.73
2022-08-19T08:08:52.756Z,15.52
2022-08-19T08:11:24.150Z,15.85
2022-08-19T08:14:00.932Z,16.95
2022-08-19T08:16:32.211Z,14.45
2022-08-19T08:19:01.353Z,12.02
2022-08-19T08:21:29.693Z,9.30
2022-08-19T08:26:31.043Z,8.85
2022-08-19T08:29:03.349Z,9.38
2022-08-19T08:31:43.430Z,8.60
2022-08-19T08:34:13.897Z,8.65
2022-08-19T08:36:46.847Z,9.00
2022-08-19T08:39:17.741Z,8.35
2022-08-19T08:42:09.764Z,8.57
2022-08-19T08:44:51.170Z,8.25
2022-08-19T08:47:23.831Z,8.00
2022-08-19T08:50:04.499Z,8.00
2022-08-19T08:52:43.850Z,7.25
2022-08-19T08:55:20.468Z,8.00
2022-08-19T08:57:56.062Z,7.47
2022-08-19T09:00:34.532Z,7.80
2022-08-19T09:03:04.518Z,6.05
2022-08-19T09:06:17.445Z,4.80
2022-08-19T09:09:12.182Z,5.00
2022-08-19T09:11:59.333Z,4.95
2022-08-19T09:14:52.183Z,5.22
2022-08-19T09:17:31.727Z,4.40
2022-08-19T09:20:09.039Z,4.53
2022-08-19T09:22:44.957Z,4.55
2022-08-19T09:25:16.607Z,4.95
2022-08-19T09:27:45.366Z,4.68
2022-08-19T09:30:18.548Z,4.43
2022-08-19T09:32:47.487Z,4.43
2022-08-19T09:35:26.472Z,4.63
2022-08-19T09:37:59.497Z,4.95
2022-08-19T09:40:37.739Z,4.88
2022-08-19T09:43:09.852Z,5.10
2022-08-19T09:45:39.676Z,4.90
2022-08-19T09:48:09.524Z,4.35
2022-08-19T09:50:52.045Z,4.35
2022-08-19T09:53:23.416Z,4.93
2022-08-19T09:55:56.084Z,5.43
2022-08-19T09:58:28.818Z,5.53
2022-08-19T10:00:58.269Z,5.22
2022-08-19T10:03:30.092Z,5.57
2022-08-19T10:06:00.827Z,5.03
2022-08-19T10:08:35.984Z,5.22
2022-08-19T10:11:28.047Z,5.15
2022-08-19T10:13:53.722Z,6.25
2022-08-19T10:16:30.028Z,4.95
2022-08-19T10:18:59.302Z,4.43
2022-08-19T10:21:32.032Z,4.65
2022-08-19T10:24:04.982Z,5.03
2022-08-19T10:26:42.611Z,4.72
2022-08-19T10:29:10.815Z,5.55
2022-08-19T10:31:59.903Z,5.35
2022-08-19T10:34:28.626Z,5.55
2022-08-19T10:37:00.747Z,5.72
2022-08-19T10:39:43.485Z,5.00
2022-08-19T10:42:13.941Z,5.68
2022-08-19T10:44:42.808Z,5.95
2022-08-19T10:47:24.630Z,5.50
2022-08-19T10:50:13.329Z,5.50
2022-08-19T10:52:49.313Z,5.15
2022-08-19T10:55:43.271Z,5.32
2022-08-19T10:58:13.387Z,5.40
2022-08-19T11:00:43.627Z,5.90
2022-08-19T11:03:12.547Z,5.47
2022-08-19T11:05:40.990Z,6.25
2022-08-19T11:08:23.222Z,6.30
2022-08-19T11:10:57.776Z,7.15
2022-08-19T11:13:29.577Z,7.00
2022-08-19T11:16:07.310Z,6.75
2022-08-19T11:18:41.351Z,7.13
2022-08-19T11:21:18.197Z,6.95
2022-08-19T11:23:48.100Z,6.38
2022-08-19T11:26:18.447Z,5.43
2022-08-19T11:28:46.767Z,5.88
2022-08-19T11:31:21.406Z,4.72
2022-08-19T11:33:53.499Z,5.82
2022-08-19T11:36:23.512Z,6.38
2022-08-19T11:38:52.308Z,5.68
2022-08-19T11:41:26.643Z,5.53
2022-08-19T11:43:56.159Z,5.93
2022-08-19T11:46:26.970Z,5.65
2022-08-19T11:48:55.385Z,5.65
2022-08-19T11:51:25.718Z,5.97
2022-08-19T11:53:55.415Z,5.50
2022-08-19T11:56:25.101Z,5.75
2022-08-19T11:58:54.429Z,6.45
2022-08-19T12:01:24.596Z,5.82
2022-08-19T12:03:56.359Z,6.65
2022-08-19T12:06:29.429Z,6.65
2022-08-19T12:11:26.943Z,6.65
2022-08-19T12:13:56.045Z,6.40
2022-08-19T12:16:30.447Z,8.05
2022-08-19T12:19:00.012Z,6.55
2022-08-19T12:21:29.546Z,6.32
2022-08-19T12:23:59.737Z,7.07
2022-08-19T12:26:30.516Z,7.30
2022-08-19T12:29:00.537Z,7.00
2022-08-19T12:31:30.057Z,7.60
2022-08-19T12:33:58.978Z,7.63
2022-08-19T12:36:27.180Z,6.07
2022-08-19T12:38:55.346Z,5.68
2022-08-19T12:41:23.755Z,6.53
2022-08-19T12:43:52.164Z,6.43
2022-08-19T12:46:23.022Z,6.38
2022-08-19T12:48:56.209Z,7.15
2022-08-19T12:51:24.556Z,6.55
2022-08-19T12:53:52.684Z,6.07
2022-08-19T12:56:23.157Z,6.88
2022-08-19T12:58:52.809Z,7.07
2022-08-19T13:01:22.871Z,4.10
2022-08-19T13:03:53.535Z,4.43
2022-08-19T13:06:24.926Z,4.68
2022-08-19T13:08:57.715Z,4.03
2022-08-19T13:11:27.653Z,4.60
2022-08-19T13:13:56.260Z,4.63
2022-08-19T13:16:24.709Z,3.58
2022-08-19T13:18:53.154Z,3.40
2022-08-19T13:21:24.744Z,2.90
2022-08-19T13:23:54.148Z,2.95
2022-08-19T13:26:22.412Z,4.00
2022-08-19T13:29:09.276Z,3.80
2022-08-19T13:31:59.030Z,3.60
2022-08-19T13:34:31.696Z,2.72
2022-08-19T13:37:01.162Z,4.32
2022-08-19T13:39:29.712Z,4.85
2022-08-19T13:41:58.555Z,4.28
2022-08-19T13:44:27.419Z,3.28
2022-08-19T13:46:56.024Z,3.20
2022-08-19T13:49:24.244Z,3.33
2022-08-19T13:51:52.517Z,3.67
2022-08-19T13:54:20.633Z,4.07
2022-08-19T13:56:48.753Z,4.30
2022-08-19T13:59:18.066Z,3.75
2022-08-19T14:01:46.401Z,3.65
2022-08-19T14:04:14.651Z,3.47
2022-08-19T14:06:42.891Z,3.72
2022-08-19T14:09:11.132Z,2.50
2022-08-19T14:11:39.277Z,2.60
2022-08-19T14:14:07.480Z,2.95
2022-08-19T14:16:35.618Z,2.53
2022-08-19T14:19:04.211Z,2.15
2022-08-19T14:21:32.353Z,2.08
2022-08-19T14:24:03.748Z,2.13
2022-08-19T14:26:31.922Z,1.73
2022-08-19T14:29:02.380Z,2.00
2022-08-19T14:31:31.046Z,1.92
2022-08-19T14:33:59.548Z,2.30
2022-08-19T14:36:27.771Z,1.85
2022-08-19T14:38:55.994Z,1.70
2022-08-19T14:41:25.214Z,2.15
2022-08-19T14:43:54.742Z,2.75
2022-08-19T14:46:26.351Z,1.88
2022-08-19T14:48:57.346Z,1.70
2022-08-19T14:51:28.739Z,2.10
2022-08-19T14:53:57.178Z,3.08
2022-08-19T14:56:29.165Z,2.40
2022-08-19T14:59:01.330Z,3.22
2022-08-19T15:01:30.011Z,2.60
2022-08-19T15:03:58.205Z,2.65
2022-08-19T15:06:27.417Z,2.80
2022-08-19T15:08:57.766Z,2.33
2022-08-19T15:11:30.131Z,2.20
2022-08-19T15:13:58.426Z,2.42
2022-08-19T15:16:28.788Z,2.60
2022-08-19T15:18:59.945Z,2.50
2022-08-19T15:21:29.110Z,2.38
2022-08-19T15:23:59.433Z,2.35
2022-08-19T15:26:33.370Z,2.13
2022-08-19T15:29:03.089Z,1.90
2022-08-19T15:31:36.459Z,2.78
2022-08-19T15:34:06.856Z,1.90
2022-08-19T15:36:38.344Z,1.77
2022-08-19T15:39:07.391Z,2.20
2022-08-19T15:41:37.069Z,1.80
2022-08-19T15:44:10.019Z,2.28
2022-08-19T15:46:43.470Z,1.85
2022-08-19T15:49:13.976Z,2.50
2022-08-19T15:51:44.031Z,2.65
2022-08-19T15:54:16.285Z,1.83
2022-08-19T15:57:03.162Z,1.63
2022-08-19T15:59:50.217Z,2.45
2022-08-19T16:02:41.369Z,2.03
2022-08-19T16:05:31.021Z,2.20
2022-08-19T16:07:59.436Z,1.70
2022-08-19T16:10:28.526Z,1.80
2022-08-19T16:12:58.405Z,2.00
2022-08-19T16:15:28.622Z,2.20
2022-08-19T16:17:58.068Z,2.22
2022-08-19T16:20:27.499Z,1.73
2022-08-19T16:22:58.517Z,1.83
2022-08-19T16:25:30.002Z,2.13
2022-08-19T16:28:07.258Z,2.10
2022-08-19T16:30:41.416Z,1.65
2022-08-19T16:33:10.727Z,2.05
2022-08-19T16:35:39.125Z,2.00
2022-08-19T16:38:07.429Z,2.28
2022-08-19T16:40:35.697Z,2.05
2022-08-19T16:43:04.459Z,2.50
2022-08-19T16:45:32.727Z,2.13
2022-08-19T16:48:01.582Z,2.63
2022-08-19T16:50:48.157Z,2.22
2022-08-19T16:53:19.347Z,2.53
2022-08-19T16:55:50.891Z,1.85
2022-08-19T16:58:19.128Z,2.70
2022-08-19T17:00:49.845Z,2.13
2022-08-19T17:03:19.715Z,2.10
2022-08-19T17:06:02.541Z,1.85
2022-08-19T17:08:34.082Z,2.58
2022-08-19T17:11:17.739Z,2.20
2022-08-19T17:13:48.080Z,2.10
2022-08-19T17:16:19.811Z,2.58
2022-08-19T17:18:52.242Z,2.13
2022-08-19T17:21:27.830Z,3.17
2022-08-19T17:23:57.474Z,2.20
2022-08-19T17:26:26.615Z,2.33
2022-08-19T17:28:57.325Z,2.13
2022-08-19T17:31:29.081Z,2.80
2022-08-19T17:33:58.880Z,1.92
2022-08-19T17:36:30.164Z,1.90
2022-08-19T17:39:01.226Z,1.90
2022-08-19T17:41:31.627Z,1.80
2022-08-19T17:44:01.196Z,1.60
2022-08-19T17:46:30.455Z,1.95
2022-08-19T17:48:58.923Z,1.98
2022-08-19T17:51:45.464Z,1.85
2022-08-19T17:54:18.729Z,2.05
2022-08-19T17:59:18.453Z,1.60
2022-08-19T18:01:52.301Z,2.25
2022-08-19T18:04:26.068Z,2.10
2022-08-19T18:06:55.895Z,1.75
2022-08-19T18:09:26.795Z,2.05
2022-08-19T18:11:57.907Z,1.95
2022-08-19T18:14:33.695Z,3.25
2022-08-19T18:17:06.326Z,2.00
2022-08-19T18:19:41.166Z,1.98
2022-08-19T18:22:12.185Z,2.03
2022-08-19T18:24:45.841Z,2.30
2022-08-19T18:27:16.934Z,2.60
2022-08-19T18:29:45.928Z,2.40
2022-08-19T18:32:23.592Z,2.58
2022-08-19T18:34:56.209Z,2.80
2022-08-19T18:37:26.235Z,2.78
2022-08-19T18:40:13.460Z,2.85
2022-08-19T18:43:04.571Z,2.42
2022-08-19T18:45:51.329Z,2.83
2022-08-19T18:48:38.556Z,2.85
2022-08-19T18:51:07.390Z,2.47
2022-08-19T18:53:39.093Z,4.35
2022-08-19T18:56:10.012Z,2.53
2022-08-19T18:58:39.544Z,2.90
2022-08-19T19:01:14.193Z,2.83
2022-08-19T19:03:45.744Z,2.90
2022-08-19T19:06:20.503Z,3.00
2022-08-19T19:08:50.207Z,2.50
2022-08-19T19:11:23.235Z,2.42
2022-08-19T19:13:51.919Z,2.78
2022-08-19T19:16:24.482Z,2.78
2022-08-19T19:18:53.291Z,2.80
2022-08-19T19:21:24.435Z,2.58
2022-08-19T19:23:54.817Z,2.30
2022-08-19T19:26:23.049Z,2.53
2022-08-19T19:28:51.600Z,3.17
2022-08-19T19:31:26.562Z,2.90
2022-08-19T19:33:56.230Z,2.42
2022-08-19T19:36:24.495Z,2.63
2022-08-19T19:38:53.064Z,2.45
2022-08-19T19:41:26.612Z,3.00
2022-08-19T19:44:31.001Z,2.92
2022-08-19T19:46:47.052Z,2.80
2022-08-19T19:49:15.922Z,2.85
2022-08-19T19:51:44.347Z,2.40
2022-08-19T19:54:18.657Z,3.38
2022-08-19T19:56:50.405Z,2.60
2022-08-19T19:59:18.719Z,3.03
2022-08-19T20:01:47.277Z,2.78
2022-08-19T20:04:16.613Z,2.50
2022-08-19T20:06:46.246Z,2.83
2022-08-19T20:09:19.640Z,2.80
2022-08-19T20:11:53.420Z,2.97
2022-08-19T20:16:52.874Z,2.55
2022-08-19T20:19:26.041Z,2.75
2022-08-19T20:21:55.829Z,2.67
2022-08-19T20:24:28.016Z,2.42
2022-08-19T20:26:56.207Z,2.75
2022-08-19T20:29:39.610Z,3.00
2022-08-19T20:32:10.001Z,3.22
2022-08-19T20:34:39.330Z,2.88
2022-08-19T20:37:10.289Z,2.95
2022-08-19T20:39:38.730Z,3.10
2022-08-19T20:42:07.121Z,3.50
2022-08-19T20:44:36.082Z,2.55
2022-08-19T20:47:04.414Z,3.65
2022-08-19T20:49:32.843Z,2.40
2022-08-19T20:52:01.622Z,2.45
2022-08-19T20:54:30.802Z,2.33
2022-08-19T20:56:59.131Z,3.50
2022-08-19T20:59:27.354Z,3.35
2022-08-19T21:01:55.646Z,2.78
2022-08-19T21:04:24.247Z,3.08
2022-08-19T21:06:52.426Z,3.17
2022-08-19T21:09:39.484Z,2.95
2022-08-19T21:12:09.308Z,2.97
2022-08-19T21:14:43.103Z,3.15
2022-08-19T21:17:12.032Z,2.88
2022-08-19T21:19:40.340Z,2.47
2022-08-19T21:22:09.181Z,3.10
2022-08-19T21:24:38.385Z,3.33
2022-08-19T21:27:06.800Z,2.95
2022-08-19T21:29:37.433Z,3.03
2022-08-19T21:32:05.793Z,3.35
2022-08-19T21:34:34.304Z,2.55
2022-08-19T21:37:02.479Z,2.78
2022-08-19T21:39:30.703Z,3.05
2022-08-19T21:41:58.930Z,2.78
2022-08-19T21:44:27.199Z,2.33
2022-08-19T21:46:55.574Z,2.65
2022-08-19T21:49:24.060Z,3.20
2022-08-19T21:51:52.681Z,2.92
2022-08-19T21:54:20.907Z,3.50
2022-08-19T21:56:49.216Z,3.50
2022-08-19T21:59:17.722Z,3.40
2022-08-19T22:01:50.458Z,3.58
2022-08-19T22:04:22.374Z,3.70
2022-08-19T22:06:50.623Z,3.08
2022-08-19T22:09:18.833Z,3.67
2022-08-19T22:11:47.048Z,3.40
2022-08-19T22:14:15.428Z,2.70
2022-08-19T22:16:43.690Z,2.88
2022-08-19T22:19:12.890Z,2.80
2022-08-19T22:21:41.383Z,2.92
2022-08-19T22:24:12.014Z,2.30
2022-08-19T22:26:40.194Z,2.08
2022-08-19T22:29:08.418Z,2.20
2022-08-19T22:31:37.688Z,1.80
2022-08-19T22:34:06.695Z,2.50
2022-08-19T22:36:35.464Z,2.13
2022-08-19T22:39:05.097Z,1.77
2022-08-19T22:41:34.143Z,2.17
2022-08-19T22:44:03.850Z,2.80
2022-08-19T22:46:33.715Z,2.00
2022-08-19T22:49:01.944Z,2.00
2022-08-19T22:51:50.170Z,1.80
2022-08-19T22:54:18.662Z,1.88
2022-08-19T22:56:46.910Z,2.15
2022-08-19T22:59:15.110Z,2.15
2022-08-19T23:01:46.380Z,2.08
2022-08-19T23:04:17.403Z,2.05
2022-08-19T23:06:45.576Z,2.05
2022-08-19T23:09:16.858Z,2.25
2022-08-19T23:11:46.251Z,2.60
2022-08-19T23:14:16.785Z,2.50
2022-08-19T23:16:50.839Z,3.40
2022-08-19T23:19:20.497Z,2.53
2022-08-19T23:21:48.944Z,2.83
2022-08-19T23:24:17.370Z,1.98
2022-08-19T23:27:05.491Z,3.05
2022-08-19T23:29:52.091Z,2.20
2022-08-19T23:32:22.307Z,1.95
2022-08-19T23:34:50.506Z,1.95
2022-08-19T23:37:18.929Z,1.83
2022-08-19T23:39:47.164Z,2.50
2022-08-19T23:42:15.343Z,2.13
2022-08-19T23:44:51.432Z,2.25
2022-08-19T23:47:21.473Z,2.05
2022-08-19T23:49:50.694Z,1.95
2022-08-19T23:52:19.354Z,2.70
2022-08-19T23:54:47.621Z,2.10
2022-08-19T23:57:15.856Z,2.25
2022-08-19T23:59:47.403Z,2.97
